Time;durP1;ratioP1;P1;durP2;ratioP2;P2;SDS_P1;SDS_P2;PMS_P1;PMS_P2;Temp;Humidity;BMP_temperature;BMP_pressure;BME280_temperature;BME280_humidity;BME280_pressure;Samples;Min_cycle;Max_cycle;Signal;HPM_P1;HPM_P2
2023/06/22 04:29:29;;;;;;;6.43;2.30;;;13.50;72.00;;;;;;6302291;22;20030;-67
2023/06/22 04:32:02;;;;;;;8.23;2.33;;;13.50;72.00;;;;;;6272723;22;20015;-67
2023/06/22 04:34:30;;;;;;;8.32;2.13;;;13.50;72.40;;;;;;6276141;22;20023;-67
2023/06/22 04:36:58;;;;;;;5.13;2.33;;;13.50;72.70;;;;;;6248137;22;20378;-68
2023/06/22 04:39:26;;;;;;;6.38;2.22;;;13.50;73.00;;;;;;6248691;22;20095;-68
2023/06/22 04:42:00;;;;;;;5.75;2.15;;;13.50;73.30;;;;;;6274502;22;20295;-68
2023/06/22 04:44:27;;;;;;;3.90;1.70;;;13.50;73.80;;;;;;6273154;22;20008;-69
2023/06/22 04:47:03;;;;;;;4.82;2.28;;;13.50;73.90;;;;;;6276263;22;20007;-66
2023/06/22 04:49:35;;;;;;;5.55;1.95;;;13.50;74.10;;;;;;6274954;22;20011;-66
2023/06/22 04:52:10;;;;;;;7.05;2.10;;;13.50;74.20;;;;;;6276426;22;20027;-67
2023/06/22 04:54:38;;;;;;;10.02;2.40;;;13.50;74.50;;;;;;6249547;22;20311;-66
2023/06/22 04:57:10;;;;;;;8.98;2.35;;;13.60;74.60;;;;;;6248409;22;20011;-66
2023/06/22 04:59:39;;;;;;;9.23;2.40;;;13.50;74.90;;;;;;6249675;22;20000;-66
2023/06/22 05:02:06;;;;;;;5.80;2.10;;;13.60;75.20;;;;;;6249757;22;20011;-65
2023/06/22 05:04:35;;;;;;;6.68;2.60;;;13.60;75.50;;;;;;6275828;22;20034;-66
2023/06/22 05:07:03;;;;;;;8.13;2.40;;;13.70;75.80;;;;;;6249800;22;20003;-66
2023/06/22 05:09:30;;;;;;;7.32;2.05;;;13.70;76.30;;;;;;6249300;22;20419;-66
2023/06/22 05:11:59;;;;;;;5.72;1.98;;;13.60;76.70;;;;;;6276857;22;20000;-66
2023/06/22 05:14:27;;;;;;;10.18;2.20;;;13.60;77.10;;;;;;6276212;22;20008;-66
2023/06/22 05:16:58;;;;;;;6.70;1.73;;;13.50;77.90;;;;;;6276206;22;20003;-66
2023/06/22 05:19:33;;;;;;;5.03;2.05;;;13.40;78.30;;;;;;6275630;22;19999;-65
2023/06/22 05:22:00;;;;;;;7.07;1.98;;;13.40;78.80;;;;;;6276037;22;20012;-66
2023/06/22 05:24:28;;;;;;;6.45;1.90;;;13.30;79.20;;;;;;6276745;22;20079;-66
2023/06/22 05:26:55;;;;;;;7.80;1.92;;;13.30;79.50;;;;;;6276523;22;20012;-65
2023/06/22 06:39:34;;;;;;;;;;;12.60;91.80;;;;;;6298200;22;20022;-67
2023/06/22 06:42:01;;;;;;;7.70;3.33;;;12.60;91.90;;;;;;6300696;22;19911;-68
2023/06/22 06:44:29;;;;;;;11.93;3.83;;;12.50;92.10;;;;;;6304599;22;20567;-68
2023/06/22 06:46:56;;;;;;;13.73;3.92;;;12.50;92.20;;;;;;6305387;22;20007;-68
2023/06/22 06:49:24;;;;;;;8.35;4.03;;;12.40;92.40;;;;;;6301760;22;20421;-68
2023/06/22 06:51:51;;;;;;;9.50;4.05;;;12.40;92.50;;;;;;6302138;22;20315;-67
2023/06/22 06:54:20;;;;;;;10.93;4.53;;;12.30;92.60;;;;;;6275168;22;20453;-67
2023/06/22 06:56:48;;;;;;;13.13;4.47;;;12.30;92.80;;;;;;6302491;22;20035;-67
2023/06/22 06:59:16;;;;;;;10.65;4.88;;;12.30;92.90;;;;;;6276180;22;20376;-67
2023/06/22 07:01:44;;;;;;;11.70;5.28;;;12.20;92.90;;;;;;6302338;22;20010;-67
2023/06/22 07:04:11;;;;;;;18.83;4.95;;;12.20;93.10;;;;;;6303145;22;20056;-66
2023/06/22 07:06:39;;;;;;;9.55;4.68;;;12.20;93.20;;;;;;6300477;22;20060;-66
2023/06/22 07:09:06;;;;;;;12.00;5.57;;;12.20;93.30;;;;;;6302601;22;20379;-65
2023/06/22 07:11:35;;;;;;;13.63;5.30;;;12.10;93.40;;;;;;6273939;22;20084;-66
2023/06/22 07:14:02;;;;;;;10.95;5.30;;;12.10;93.40;;;;;;6300849;22;20425;-66
2023/06/22 07:16:31;;;;;;;11.95;5.35;;;12.10;93.50;;;;;;6301344;22;20035;-67
2023/06/22 07:18:58;;;;;;;16.25;5.55;;;12.00;93.50;;;;;;6302242;22;20011;-68
2023/06/22 07:21:26;;;;;;;14.77;5.93;;;12.00;93.60;;;;;;6302647;22;20007;-67
2023/06/22 07:23:54;;;;;;;11.73;5.82;;;12.00;93.50;;;;;;6301391;22;20020;-68
2023/06/22 07:26:21;;;;;;;19.52;5.75;;;12.00;93.70;;;;;;6302241;22;20330;-67
2023/06/22 07:28:50;;;;;;;17.25;6.03;;;12.00;93.70;;;;;;6301975;22;20003;-67
2023/06/22 07:31:18;;;;;;;13.00;5.55;;;12.00;93.70;;;;;;6302910;22;20070;-68
2023/06/22 07:33:45;;;;;;;15.40;6.00;;;12.00;93.80;;;;;;6303131;22;20493;-67
2023/06/22 07:36:12;;;;;;;14.13;6.00;;;11.90;94.00;;;;;;6305009;22;20087;-67
2023/06/22 07:38:40;;;;;;;16.25;5.90;;;11.90;93.90;;;;;;6304023;22;20022;-67
2023/06/22 07:41:07;;;;;;;12.82;5.65;;;11.90;93.90;;;;;;6303501;22;20019;-68
2023/06/22 07:43:36;;;;;;;12.65;5.82;;;11.90;94.00;;;;;;6273803;22;19999;-67
2023/06/22 07:46:04;;;;;;;15.38;6.55;;;11.90;94.10;;;;;;6301884;22;20422;-67
2023/06/22 07:48:32;;;;;;;19.25;6.80;;;11.90;94.10;;;;;;6247700;22;20422;-68
2023/06/22 07:51:00;;;;;;;12.60;6.10;;;11.90;94.20;;;;;;6274592;22;20010;-68
2023/06/22 07:53:28;;;;;;;15.75;6.68;;;11.90;94.20;;;;;;6302200;22;20018;-68
2023/06/22 07:55:55;;;;;;;13.27;6.20;;;11.90;94.20;;;;;;6302001;22;20452;-68
2023/06/22 07:58:23;;;;;;;15.32;5.90;;;11.90;94.30;;;;;;6274450;22;19996;-68
2023/06/22 08:00:50;;;;;;;12.75;6.00;;;11.80;94.30;;;;;;6301200;22;20019;-67
2023/06/22 08:03:18;;;;;;;12.40;5.43;;;11.80;94.30;;;;;;6299849;22;20007;-68
2023/06/22 08:05:45;;;;;;;15.52;6.00;;;11.80;94.30;;;;;;6302478;22;20014;-68
2023/06/22 08:08:14;;;;;;;15.75;5.78;;;11.80;94.30;;;;;;6301119;22;19999;-68
2023/06/22 08:10:42;;;;;;;16.15;6.60;;;11.80;94.30;;;;;;6301684;22;20057;-68
2023/06/22 08:13:10;;;;;;;15.32;6.45;;;11.80;94.40;;;;;;6301127;22;20000;-68
2023/06/22 08:15:37;;;;;;;13.82;5.80;;;11.80;94.50;;;;;;6302345;22;20082;-68
2023/06/22 08:18:05;;;;;;;13.48;5.68;;;11.90;94.60;;;;;;6271868;22;20015;-69
2023/06/22 08:20:33;;;;;;;15.43;5.90;;;11.80;94.60;;;;;;6301439;22;20030;-68
2023/06/22 08:23:05;;;;;;;15.35;6.47;;;11.80;94.60;;;;;;6301762;22;20003;-68
2023/06/22 08:25:36;;;;;;;18.67;6.95;;;11.80;94.60;;;;;;6304059;22;20007;-67
2023/06/22 08:28:04;;;;;;;14.50;6.25;;;11.80;94.70;;;;;;6303653;22;20418;-67
2023/06/22 08:30:31;;;;;;;17.38;6.55;;;11.80;94.70;;;;;;6302173;22;20346;-67
2023/06/22 08:32:58;;;;;;;17.55;6.05;;;11.80;94.70;;;;;;6276721;22;20418;-67
2023/06/22 08:35:26;;;;;;;15.38;6.18;;;11.80;94.70;;;;;;6275993;22;20093;-67
2023/06/22 08:37:54;;;;;;;14.88;6.75;;;11.80;94.60;;;;;;6301810;22;20029;-68
2023/06/22 08:40:22;;;;;;;13.32;6.03;;;11.70;94.60;;;;;;6302452;22;20023;-68
2023/06/22 08:42:49;;;;;;;12.13;6.43;;;11.70;94.70;;;;;;6274704;22;20011;-67
2023/06/22 08:45:17;;;;;;;18.30;6.88;;;11.70;94.80;;;;;;6302154;22;19999;-68
2023/06/22 08:47:44;;;;;;;16.20;8.13;;;11.70;94.90;;;;;;6304102;22;20031;-69
2023/06/22 08:50:12;;;;;;;17.70;11.15;;;11.70;94.90;;;;;;6303942;22;20010;-69
2023/06/22 08:52:45;;;;;;;17.92;10.77;;;11.70;94.90;;;;;;6304276;22;20003;-70
2023/06/22 08:55:14;;;;;;;20.73;11.98;;;11.70;95.00;;;;;;6277727;22;20015;-68
2023/06/22 08:57:42;;;;;;;14.85;7.35;;;11.70;94.90;;;;;;6303961;22;20386;-68
2023/06/22 09:00:17;;;;;;;20.08;9.75;;;11.70;95.00;;;;;;6304024;22;20003;-67
2023/06/22 09:02:47;;;;;;;20.98;8.70;;;11.70;95.00;;;;;;6304122;22;20044;-66
2023/06/22 09:05:15;;;;;;;16.60;8.48;;;11.70;95.00;;;;;;6277190;22;20081;-67
2023/06/22 09:07:43;;;;;;;20.38;9.98;;;11.70;95.00;;;;;;6303953;22;20004;-66
2023/06/22 09:10:10;;;;;;;18.48;8.73;;;11.70;95.00;;;;;;6303561;22;20007;-67
2023/06/22 09:12:39;;;;;;;12.13;7.15;;;11.70;95.10;;;;;;6303666;22;20005;-66
2023/06/22 09:15:07;;;;;;;16.80;7.05;;;11.70;95.10;;;;;;6304064;22;20011;-67
2023/06/22 09:17:35;;;;;;;18.02;6.68;;;11.70;95.10;;;;;;6276298;22;20007;-66
2023/06/22 09:20:05;;;;;;;14.57;6.43;;;11.70;95.10;;;;;;6301270;22;20003;-66
2023/06/22 09:22:33;;;;;;;10.40;5.93;;;11.70;95.10;;;;;;6252227;22;20003;-67
2023/06/22 09:25:01;;;;;;;10.25;6.07;;;11.70;95.20;;;;;;6304145;22;20022;-67
2023/06/22 09:27:28;;;;;;;12.18;5.93;;;11.70;95.20;;;;;;6303571;22;20010;-68
2023/06/22 09:29:58;;;;;;;11.13;5.90;;;11.70;95.30;;;;;;6303631;22;20341;-69
2023/06/22 09:32:26;;;;;;;17.33;6.60;;;11.70;95.40;;;;;;6303686;22;20007;-70
2023/06/22 09:34:53;;;;;;;11.77;5.60;;;11.70;95.20;;;;;;6276711;22;20515;-70
2023/06/22 09:37:21;;;;;;;12.25;5.85;;;11.60;95.20;;;;;;6303911;22;20010;-72
2023/06/22 09:39:48;;;;;;;16.42;6.18;;;11.70;95.20;;;;;;6302366;22;20003;-72
2023/06/22 09:42:15;;;;;;;17.08;6.05;;;11.70;95.30;;;;;;6275051;22;19999;-72
2023/06/22 09:44:43;;;;;;;13.68;6.25;;;11.60;95.30;;;;;;6300286;22;20007;-72
2023/06/22 09:47:10;;;;;;;14.10;6.30;;;11.60;95.20;;;;;;6301897;22;20702;-72
2023/06/22 09:49:38;;;;;;;12.95;6.43;;;11.60;95.30;;;;;;6301056;22;20062;-72
2023/06/22 09:52:06;;;;;;;12.35;6.20;;;11.60;95.30;;;;;;6300675;22;20007;-71
2023/06/22 09:54:33;;;;;;;14.05;6.60;;;11.60;95.30;;;;;;6301085;22;20018;-71
2023/06/22 09:57:01;;;;;;;14.05;6.57;;;11.50;95.30;;;;;;6275796;22;19999;-71
2023/06/22 09:59:28;;;;;;;13.20;5.75;;;11.50;95.30;;;;;;6303612;22;20007;-72
2023/06/22 10:01:55;;;;;;;14.52;6.55;;;11.50;95.40;;;;;;6303554;22;20009;-70
2023/06/22 10:04:24;;;;;;;18.23;7.25;;;11.50;95.30;;;;;;6303542;22;20002;-70
2023/06/22 10:06:51;;;;;;;18.30;7.60;;;11.50;95.40;;;;;;6303473;22;19995;-69
2023/06/22 10:09:19;;;;;;;15.13;7.30;;;11.50;95.40;;;;;;6303248;22;20029;-77
2023/06/22 10:11:46;;;;;;;16.05;7.43;;;11.50;95.40;;;;;;6303054;22;20072;-77
2023/06/22 10:14:14;;;;;;;13.70;6.60;;;11.50;95.40;;;;;;6303571;22;20007;-75
2023/06/22 10:16:41;;;;;;;16.25;6.85;;;11.50;95.40;;;;;;6303586;22;20012;-72
2023/06/22 10:19:09;;;;;;;17.15;7.40;;;11.40;95.40;;;;;;6299691;22;19999;-72
2023/06/22 10:21:36;;;;;;;17.80;7.57;;;11.50;95.50;;;;;;6303131;22;20078;-72
2023/06/22 10:24:08;;;;;;;15.05;7.32;;;11.50;95.40;;;;;;6276094;22;20006;-70
2023/06/22 10:26:36;;;;;;;13.55;7.90;;;11.40;95.50;;;;;;6303801;22;20030;-71
2023/06/22 10:29:03;;;;;;;16.35;7.50;;;11.50;95.50;;;;;;6302574;22;19999;-72
2023/06/22 10:31:31;;;;;;;18.70;7.70;;;11.50;95.50;;;;;;6303115;22;20072;-72
2023/06/22 10:33:58;;;;;;;14.60;7.00;;;11.50;95.60;;;;;;6275923;22;20010;-72
2023/06/22 10:36:26;;;;;;;17.92;7.55;;;11.50;95.60;;;;;;6303108;22;20018;-70
2023/06/22 10:38:55;;;;;;;17.05;7.18;;;11.50;95.70;;;;;;6302405;22;20007;-72
2023/06/22 10:41:22;;;;;;;15.52;6.82;;;11.50;95.70;;;;;;6303017;22;20019;-69
2023/06/22 10:43:50;;;;;;;14.05;6.80;;;11.50;95.70;;;;;;6303034;22;20007;-70
2023/06/22 10:46:17;;;;;;;16.05;7.45;;;11.50;95.70;;;;;;6250505;22;20053;-70
2023/06/22 10:48:45;;;;;;;14.55;6.75;;;11.50;95.70;;;;;;6303306;22;20007;-70
2023/06/22 10:51:12;;;;;;;12.68;6.00;;;11.50;95.70;;;;;;6275908;22;20007;-69
2023/06/22 10:53:39;;;;;;;13.73;6.95;;;11.50;95.60;;;;;;6302201;22;20007;-69
2023/06/22 10:56:07;;;;;;;13.15;6.40;;;11.50;95.70;;;;;;6302146;22;20019;-68
2023/06/22 10:58:34;;;;;;;13.95;6.38;;;11.50;95.70;;;;;;6275739;22;20026;-68
2023/06/22 11:01:03;;;;;;;13.65;6.35;;;11.50;95.60;;;;;;6303358;22;20007;-68
2023/06/22 11:03:30;;;;;;;14.68;6.68;;;11.50;95.60;;;;;;6302969;22;20003;-69
2023/06/22 11:05:57;;;;;;;14.23;6.90;;;11.50;95.60;;;;;;6303227;22;20464;-69
2023/06/22 11:08:25;;;;;;;14.18;6.57;;;11.50;95.60;;;;;;6303168;22;20125;-68
2023/06/22 11:10:53;;;;;;;11.30;6.45;;;11.50;95.50;;;;;;6302692;22;20568;-69
2023/06/22 11:13:20;;;;;;;13.95;6.55;;;11.50;95.60;;;;;;6302919;22;20018;-71
2023/06/22 11:15:47;;;;;;;14.13;6.63;;;11.50;95.60;;;;;;6302044;22;20015;-68
2023/06/22 11:18:15;;;;;;;17.17;6.80;;;11.50;95.60;;;;;;6274199;22;19999;-68
2023/06/22 11:20:42;;;;;;;19.23;7.60;;;11.50;95.50;;;;;;6275432;22;20464;-72
2023/06/22 11:23:11;;;;;;;10.88;7.65;;;11.50;95.50;;;;;;6274946;22;20004;-69
2023/06/22 11:25:39;;;;;;;17.58;7.88;;;11.50;95.50;;;;;;6302481;22;20323;-72
2023/06/22 11:28:06;;;;;;;17.15;7.30;;;11.50;95.50;;;;;;6302022;22;19999;-71
2023/06/22 11:30:34;;;;;;;16.52;8.00;;;11.50;95.50;;;;;;6302541;22;20011;-70
2023/06/22 11:33:01;;;;;;;13.13;8.48;;;11.40;95.30;;;;;;6302512;22;20014;-71
2023/06/22 11:35:29;;;;;;;12.70;7.95;;;11.40;95.30;;;;;;6301869;22;20018;-70
2023/06/22 11:37:56;;;;;;;15.93;8.40;;;11.40;95.20;;;;;;6275576;22;20426;-70
2023/06/22 11:40:24;;;;;;;12.13;8.10;;;11.50;95.20;;;;;;6301856;22;20034;-69
2023/06/22 11:42:51;;;;;;;12.10;7.13;;;11.50;95.20;;;;;;6273967;22;20009;-70
2023/06/22 11:45:20;;;;;;;12.15;7.18;;;11.40;95.20;;;;;;6301628;22;20082;-70
2023/06/22 11:47:48;;;;;;;13.18;6.93;;;11.50;95.10;;;;;;6302978;22;20066;-71
2023/06/22 11:50:15;;;;;;;10.52;6.80;;;11.40;95.10;;;;;;6302792;22;20067;-70
2023/06/22 11:52:43;;;;;;;13.40;7.30;;;11.40;95.10;;;;;;6275241;22;20003;-69
2023/06/22 11:55:10;;;;;;;10.85;6.70;;;11.40;95.10;;;;;;6302566;22;20519;-69
2023/06/22 11:57:38;;;;;;;10.50;7.22;;;11.40;95.00;;;;;;6302484;22;20516;-70
2023/06/22 12:00:17;;;;;;;11.73;7.63;;;11.40;95.00;;;;;;6277445;22;20007;-70
2023/06/22 12:02:47;;;;;;;13.50;7.07;;;11.40;95.10;;;;;;6304345;22;20322;-70
2023/06/22 12:05:14;;;;;;;;;;;11.40;95.30;;;;;;6305870;22;20017;-71
2023/06/22 12:07:42;;;;;;;13.27;7.05;;;11.50;95.20;;;;;;6303403;22;19925;-70
2023/06/22 12:10:09;;;;;;;10.75;6.50;;;11.40;95.20;;;;;;6304282;22;20007;-71
2023/06/22 12:12:37;;;;;;;12.90;6.95;;;11.40;95.20;;;;;;6304052;22;19999;-71
2023/06/22 12:15:05;;;;;;;10.43;7.13;;;11.40;95.20;;;;;;6304691;22;20023;-71
2023/06/22 12:17:33;;;;;;;10.60;6.55;;;11.40;95.20;;;;;;6304898;22;20002;-71
2023/06/22 12:20:01;;;;;;;13.95;7.15;;;11.50;95.30;;;;;;6302157;22;20010;-71
2023/06/22 12:22:29;;;;;;;10.93;6.95;;;11.50;95.30;;;;;;6277981;22;20000;-70
2023/06/22 12:24:56;;;;;;;11.90;6.95;;;11.50;95.30;;;;;;6278190;22;20012;-71
2023/06/22 12:27:24;;;;;;;10.60;7.28;;;11.40;95.30;;;;;;6302793;22;20666;-70
2023/06/22 12:29:51;;;;;;;10.88;7.45;;;11.40;95.30;;;;;;6304011;22;20049;-71
2023/06/22 12:32:18;;;;;;;14.38;7.75;;;11.40;95.30;;;;;;6304918;22;20013;-70
2023/06/22 12:34:46;;;;;;;12.23;7.18;;;11.40;95.30;;;;;;6304743;22;20036;-70
2023/06/22 12:37:13;;;;;;;10.48;7.55;;;11.30;95.20;;;;;;6303999;22;19999;-71
2023/06/22 12:39:43;;;;;;;13.27;7.85;;;11.40;95.20;;;;;;6303371;22;20006;-70
2023/06/22 12:42:11;;;;;;;10.93;7.68;;;11.30;95.20;;;;;;6277480;22;20500;-70
2023/06/22 12:44:39;;;;;;;12.52;7.68;;;11.40;95.20;;;;;;6277634;22;20000;-70
2023/06/22 12:47:08;;;;;;;13.43;7.47;;;11.30;95.30;;;;;;6251845;22;20007;-70
2023/06/22 12:49:36;;;;;;;10.05;7.35;;;11.40;95.30;;;;;;6277050;22;20484;-72
2023/06/22 12:52:05;;;;;;;13.32;6.90;;;11.30;95.10;;;;;;6304247;22;20014;-71
2023/06/22 12:54:32;;;;;;;10.88;7.60;;;11.30;95.20;;;;;;6276383;22;20090;-69
2023/06/22 12:56:59;;;;;;;15.60;7.93;;;11.30;95.30;;;;;;6277212;22;20007;-69
2023/06/22 12:59:27;;;;;;;13.23;7.60;;;11.30;95.30;;;;;;6304660;22;20430;-69
2023/06/22 13:01:54;;;;;;;18.33;8.10;;;11.30;95.40;;;;;;6304252;22;20014;-70
2023/06/22 13:04:25;;;;;;;15.82;7.25;;;11.30;95.30;;;;;;6303829;22;20023;-71
2023/06/22 13:06:52;;;;;;;11.02;7.45;;;11.30;95.40;;;;;;6304090;22;20003;-70
2023/06/22 13:09:20;;;;;;;14.15;7.43;;;11.40;95.40;;;;;;6253148;22;20144;-71
2023/06/22 13:11:48;;;;;;;11.93;7.30;;;11.40;95.50;;;;;;6307307;22;20030;-71
2023/06/22 13:14:16;;;;;;;15.38;7.72;;;11.40;95.50;;;;;;6307624;22;19999;-71
2023/06/22 13:16:43;;;;;;;11.35;7.65;;;11.40;95.50;;;;;;6307231;22;20007;-71
2023/06/22 13:19:11;;;;;;;9.60;6.43;;;11.40;95.60;;;;;;6306494;22;20030;-71
2023/06/22 13:21:38;;;;;;;11.13;7.25;;;11.40;95.60;;;;;;6306328;22;20007;-70
2023/06/22 13:24:06;;;;;;;16.55;8.07;;;11.40;95.60;;;;;;6306813;22;19999;-70
2023/06/22 13:26:33;;;;;;;14.85;7.57;;;11.40;95.70;;;;;;6307591;22;20049;-70
2023/06/22 13:29:01;;;;;;;11.15;6.93;;;11.40;95.80;;;;;;6306786;22;20078;-70
2023/06/22 13:31:28;;;;;;;9.57;6.30;;;11.40;95.80;;;;;;6307557;22;20322;-70
2023/06/22 13:33:56;;;;;;;11.40;6.57;;;11.40;95.80;;;;;;6307453;22;20011;-70
2023/06/22 13:36:23;;;;;;;10.38;6.90;;;11.40;95.80;;;;;;6307409;22;20012;-71
2023/06/22 13:38:51;;;;;;;10.98;6.22;;;11.40;95.80;;;;;;6306688;22;20006;-70
2023/06/22 13:41:18;;;;;;;10.63;5.70;;;11.40;95.80;;;;;;6307184;22;20022;-70
2023/06/22 13:43:46;;;;;;;9.07;5.47;;;11.40;95.80;;;;;;6306322;22;20008;-70
2023/06/22 13:46:13;;;;;;;8.45;5.38;;;11.40;95.80;;;;;;6306243;22;20082;-70
2023/06/22 13:48:41;;;;;;;8.13;5.10;;;11.40;95.80;;;;;;6307047;22;20006;-71
2023/06/22 13:51:08;;;;;;;8.05;5.05;;;11.40;95.80;;;;;;6307042;22;20066;-71
2023/06/22 13:53:36;;;;;;;9.35;4.90;;;11.40;95.80;;;;;;6306406;22;20007;-71
2023/06/22 13:56:03;;;;;;;7.13;4.85;;;11.40;95.90;;;;;;6305628;22;20384;-71
2023/06/22 13:58:31;;;;;;;10.80;5.22;;;11.50;95.90;;;;;;6307188;22;20003;-70
2023/06/22 14:00:58;;;;;;;11.88;4.80;;;11.50;95.90;;;;;;6279582;22;20007;-71
2023/06/22 14:03:26;;;;;;;8.27;4.95;;;11.40;95.90;;;;;;6306488;22;20434;-71
2023/06/22 14:05:55;;;;;;;7.80;5.25;;;11.50;95.90;;;;;;6306493;22;20006;-71
2023/06/22 14:08:24;;;;;;;11.32;5.07;;;11.40;96.00;;;;;;6279953;22;20007;-72
2023/06/22 14:10:53;;;;;;;7.03;4.38;;;11.40;96.00;;;;;;6306508;22;20466;-72
2023/06/22 14:13:20;;;;;;;11.85;4.90;;;11.50;96.10;;;;;;6279747;22;20030;-72
2023/06/22 14:15:48;;;;;;;10.73;4.20;;;11.50;96.10;;;;;;6306474;22;20007;-72
2023/06/22 14:18:15;;;;;;;9.48;4.10;;;11.50;96.10;;;;;;6306959;22;20073;-72
2023/06/22 14:20:43;;;;;;;7.85;3.88;;;11.50;96.20;;;;;;6306431;22;20065;-71
2023/06/22 14:23:10;;;;;;;9.65;3.35;;;11.50;96.20;;;;;;6307068;22;20004;-71
2023/06/22 14:25:38;;;;;;;5.97;3.30;;;11.50;96.20;;;;;;6306485;22;20014;-71
2023/06/22 14:28:05;;;;;;;6.00;3.00;;;11.50;96.20;;;;;;6306859;22;20002;-71
2023/06/22 14:30:33;;;;;;;6.55;3.17;;;11.50;96.20;;;;;;6306398;22;20074;-71
2023/06/22 14:33:00;;;;;;;7.22;3.33;;;11.50;96.20;;;;;;6306713;22;19999;-71
2023/06/22 14:35:27;;;;;;;8.85;3.08;;;11.50;96.20;;;;;;6306844;22;20007;-71
2023/06/22 14:37:55;;;;;;;6.05;2.70;;;11.50;96.20;;;;;;6306984;22;19999;-70
2023/06/22 14:40:22;;;;;;;5.55;2.67;;;11.40;96.20;;;;;;6305866;22;20021;-70
2023/06/22 14:42:49;;;;;;;4.03;2.55;;;11.50;96.30;;;;;;6278890;22;20003;-70
2023/06/22 14:45:17;;;;;;;6.20;2.53;;;11.50;96.30;;;;;;6306796;22;20048;-70
2023/06/22 14:47:44;;;;;;;6.97;2.58;;;11.40;96.30;;;;;;6306144;22;20007;-70
2023/06/22 14:50:12;;;;;;;7.15;2.95;;;11.40;96.30;;;;;;6306529;22;20010;-70
2023/06/22 14:52:39;;;;;;;5.75;2.63;;;11.40;96.30;;;;;;6306710;22;20026;-70
2023/06/22 14:55:07;;;;;;;4.25;2.55;;;11.40;96.30;;;;;;6304926;22;20011;-70
2023/06/22 14:57:34;;;;;;;6.85;2.70;;;11.50;96.30;;;;;;6279255;22;20082;-70
2023/06/22 15:00:02;;;;;;;5.18;2.67;;;11.40;96.30;;;;;;6306720;22;20007;-70
2023/06/22 15:02:30;;;;;;;4.97;2.58;;;11.40;96.30;;;;;;6279917;22;20019;-71
2023/06/22 15:04:57;;;;;;;4.38;2.47;;;11.50;96.40;;;;;;6306880;22;19996;-71
2023/06/22 15:07:25;;;;;;;5.40;2.80;;;11.50;96.40;;;;;;6306377;22;20026;-70
2023/06/22 15:09:52;;;;;;;5.65;2.70;;;11.50;96.40;;;;;;6306315;22;19995;-70
2023/06/22 15:12:20;;;;;;;7.10;2.80;;;11.50;96.40;;;;;;6305889;22;20003;-70
2023/06/22 15:14:47;;;;;;;6.10;3.00;;;11.60;96.50;;;;;;6306398;22;20191;-70
2023/06/22 15:17:15;;;;;;;4.70;2.92;;;11.50;96.50;;;;;;6306306;22;20445;-70
2023/06/22 15:19:42;;;;;;;5.82;2.70;;;11.50;96.40;;;;;;6306933;22;20053;-70
2023/06/22 15:22:10;;;;;;;7.10;2.85;;;11.60;96.50;;;;;;6306330;22;20061;-70
2023/06/22 15:24:37;;;;;;;7.05;2.80;;;11.60;96.50;;;;;;6306252;22;20452;-70
2023/06/22 15:27:05;;;;;;;4.68;2.80;;;11.60;96.50;;;;;;6305747;22;20078;-70
2023/06/22 15:29:34;;;;;;;4.07;2.55;;;11.60;96.50;;;;;;6279591;22;19995;-70
2023/06/22 15:32:01;;;;;;;6.20;2.60;;;11.60;96.50;;;;;;6306041;22;20012;-70
2023/06/22 15:34:29;;;;;;;4.95;2.63;;;11.60;96.50;;;;;;6305740;22;20007;-71
2023/06/22 15:36:56;;;;;;;4.80;2.63;;;11.60;96.50;;;;;;6306768;22;20520;-70
2023/06/22 15:39:26;;;;;;;4.68;2.40;;;11.60;96.50;;;;;;6306428;22;19995;-70
2023/06/22 15:41:54;;;;;;;5.35;2.63;;;11.60;96.50;;;;;;6305522;22;20019;-70
2023/06/22 15:44:22;;;;;;;3.38;2.70;;;11.60;96.50;;;;;;6279522;22;20029;-70
2023/06/22 15:46:49;;;;;;;8.30;2.70;;;11.60;96.60;;;;;;6278948;22;20011;-70
2023/06/22 15:49:17;;;;;;;2.72;2.30;;;11.60;96.60;;;;;;6279483;22;19995;-70
2023/06/22 15:51:45;;;;;;;2.90;2.60;;;11.60;96.60;;;;;;6305586;22;20003;-70
2023/06/22 15:54:13;;;;;;;3.83;2.50;;;11.70;96.60;;;;;;6278798;22;20083;-70
2023/06/22 15:56:40;;;;;;;4.03;2.53;;;11.60;96.50;;;;;;6306297;22;20014;-69
2023/06/22 15:59:07;;;;;;;5.13;2.38;;;11.60;96.60;;;;;;6306484;22;20003;-69
2023/06/22 16:01:35;;;;;;;4.47;2.75;;;11.60;96.50;;;;;;6305494;22;20006;-70
2023/06/22 16:04:02;;;;;;;4.22;2.50;;;11.60;96.50;;;;;;6306195;22;20449;-69
2023/06/22 16:06:30;;;;;;;6.25;2.80;;;11.60;96.50;;;;;;6306005;22;19999;-70
2023/06/22 16:08:57;;;;;;;4.35;2.33;;;11.60;96.50;;;;;;6306333;22;19999;-70
2023/06/22 16:11:24;;;;;;;2.72;2.17;;;11.60;96.50;;;;;;6278491;22;20041;-68
2023/06/22 16:13:52;;;;;;;4.85;2.70;;;11.60;96.50;;;;;;6306490;22;20007;-69
2023/06/22 16:16:19;;;;;;;2.95;2.10;;;11.60;96.50;;;;;;6306423;22;20014;-70
2023/06/22 16:18:47;;;;;;;3.55;2.40;;;11.60;96.60;;;;;;6305970;22;20312;-69
2023/06/22 16:21:14;;;;;;;3.55;2.45;;;11.60;96.60;;;;;;6305210;22;20418;-69
2023/06/22 16:23:41;;;;;;;4.60;2.42;;;11.60;96.60;;;;;;6305839;22;20006;-70
2023/06/22 16:26:08;;;;;;;6.32;2.30;;;11.60;96.60;;;;;;6304471;22;19999;-71
2023/06/22 16:28:36;;;;;;;4.05;2.20;;;11.60;96.60;;;;;;6306632;22;20007;-71
2023/06/22 16:31:03;;;;;;;7.15;2.75;;;11.50;96.50;;;;;;6305787;22;20492;-72
2023/06/22 16:33:30;;;;;;;4.47;2.05;;;11.60;96.60;;;;;;6305485;22;20006;-71
2023/06/22 16:35:57;;;;;;;5.93;2.08;;;11.50;96.60;;;;;;6306253;22;20034;-71
2023/06/22 16:38:25;;;;;;;4.63;2.30;;;11.50;96.60;;;;;;6305359;22;20070;-71
2023/06/22 16:40:52;;;;;;;4.20;2.10;;;11.50;96.60;;;;;;6304885;22;20418;-71
2023/06/22 16:43:21;;;;;;;2.83;2.00;;;11.50;96.70;;;;;;6305289;22;20035;-71
2023/06/22 16:45:48;;;;;;;8.15;2.40;;;11.50;96.60;;;;;;6307236;22;20003;-72
2023/06/22 16:48:16;;;;;;;5.63;2.15;;;11.50;96.60;;;;;;6307730;22;20043;-72
2023/06/22 16:50:43;;;;;;;5.30;1.85;;;11.50;96.70;;;;;;6307667;22;20394;-72
2023/06/22 16:53:10;;;;;;;4.70;2.00;;;11.50;96.70;;;;;;6307748;22;20355;-72
2023/06/22 16:55:37;;;;;;;5.70;1.63;;;11.50;96.80;;;;;;6307647;22;20319;-71
2023/06/22 16:58:05;;;;;;;4.25;2.05;;;11.50;96.80;;;;;;6307862;22;19999;-71
2023/06/22 17:00:32;;;;;;;2.88;1.70;;;11.50;96.90;;;;;;6280215;22;20326;-71
2023/06/22 17:03:01;;;;;;;6.85;1.77;;;11.50;96.90;;;;;;6307504;22;20006;-71
2023/06/22 17:05:29;;;;;;;9.10;1.77;;;11.50;97.00;;;;;;6280646;22;20082;-71
2023/06/22 17:07:58;;;;;;;5.72;1.92;;;11.50;97.00;;;;;;6255191;22;20015;-71
2023/06/22 17:10:25;;;;;;;5.43;1.67;;;11.50;97.10;;;;;;6279952;22;20339;-72
2023/06/22 17:12:53;;;;;;;7.38;1.60;;;11.60;97.10;;;;;;6279756;22;20113;-71
2023/06/22 17:15:20;;;;;;;6.65;1.73;;;11.50;97.10;;;;;;6307576;22;20003;-71
2023/06/22 17:17:48;;;;;;;4.07;1.50;;;11.60;97.20;;;;;;6280878;22;20032;-71
2023/06/22 17:20:15;;;;;;;3.38;1.42;;;11.60;97.20;;;;;;6280733;22;19995;-70
2023/06/22 17:22:47;;;;;;;5.03;1.40;;;11.60;97.20;;;;;;6279643;22;20048;-71
2023/06/22 17:25:15;;;;;;;3.35;1.40;;;11.60;97.20;;;;;;6307073;22;20308;-71
2023/06/22 17:27:42;;;;;;;1.45;1.10;;;11.60;97.20;;;;;;6307117;22;19999;-71
2023/06/22 17:30:16;;;;;;;4.53;1.52;;;11.60;97.20;;;;;;6279499;22;20073;-71
2023/06/22 17:32:47;;;;;;;2.97;1.40;;;11.60;97.20;;;;;;6307088;22;20102;-70
2023/06/22 17:35:15;;;;;;;2.97;1.30;;;11.60;97.20;;;;;;6280944;22;20090;-70
2023/06/22 17:37:53;;;;;;;2.70;1.17;;;11.60;97.20;;;;;;6307069;22;20034;-70
2023/06/22 17:40:23;;;;;;;2.65;1.35;;;11.60;97.20;;;;;;6306999;22;20110;-70
2023/06/22 17:42:50;;;;;;;4.78;1.38;;;11.50;97.20;;;;;;6306864;22;20000;-70
2023/06/22 17:45:24;;;;;;;3.92;1.20;;;11.60;97.20;;;;;;6279388;22;20009;-70
2023/06/22 17:47:53;;;;;;;3.30;1.30;;;11.60;97.20;;;;;;6304818;22;20003;-71
2023/06/22 17:50:23;;;;;;;3.08;1.17;;;11.50;97.20;;;;;;6254953;22;20054;-71
2023/06/22 17:52:55;;;;;;;1.93;1.10;;;11.60;97.20;;;;;;6254800;22;20414;-71
2023/06/22 17:55:23;;;;;;;4.25;1.20;;;11.60;97.20;;;;;;6253844;22;20007;-71
2023/06/22 17:57:58;;;;;;;2.25;1.27;;;11.60;97.30;;;;;;6279613;22;19999;-70
2023/06/22 18:00:29;;;;;;;2.83;1.20;;;11.60;97.20;;;;;;6306782;22;20003;-70
2023/06/22 18:02:56;;;;;;;2.28;1.30;;;11.60;97.20;;;;;;6279126;22;20097;-71
2023/06/22 18:05:33;;;;;;;2.70;1.20;;;11.60;97.30;;;;;;6279400;22;20430;-70
2023/06/22 18:08:01;;;;;;;2.25;1.20;;;11.60;97.30;;;;;;6280037;22;20434;-70
2023/06/22 18:10:29;;;;;;;2.97;1.23;;;11.60;97.20;;;;;;6279695;22;20495;-71
2023/06/22 18:12:57;;;;;;;2.08;1.30;;;11.60;97.20;;;;;;6279845;22;20029;-71
2023/06/22 18:15:25;;;;;;;2.03;1.40;;;11.50;97.20;;;;;;6279943;22;20007;-70
2023/06/22 18:17:52;;;;;;;2.10;1.40;;;11.50;97.20;;;;;;6305466;22;20007;-71
2023/06/22 18:20:20;;;;;;;1.80;1.25;;;11.50;97.20;;;;;;6306562;22;20018;-70
2023/06/22 18:22:50;;;;;;;5.05;1.35;;;11.50;97.20;;;;;;6306909;22;20511;-70